createdAt,value
2023-02-23T00:01:55.209Z,46.80
2023-02-23T00:04:23.564Z,49.97
2023-02-23T00:06:54.162Z,47.30
2023-02-23T00:09:24.441Z,48.97
2023-02-23T00:11:53.242Z,48.40
2023-02-23T00:14:20.190Z,48.87
2023-02-23T00:16:46.982Z,48.87
2023-02-23T00:19:14.079Z,49.27
2023-02-23T00:21:41.520Z,51.70
2023-02-23T00:24:10.921Z,48.67
2023-02-23T00:26:39.889Z,49.93
2023-02-23T00:29:10.954Z,48.10
2023-02-23T00:31:38.645Z,49.93
2023-02-23T00:34:07.375Z,50.57
2023-02-23T00:36:35.530Z,47.93
2023-02-23T00:39:18.799Z,50.60
2023-02-23T00:41:46.593Z,50.10
2023-02-23T00:44:15.250Z,49.10
2023-02-23T00:46:43.598Z,50.10
2023-02-23T00:49:12.404Z,49.00
2023-02-23T00:51:39.277Z,50.20
2023-02-23T00:54:07.184Z,50.33
2023-02-23T00:56:34.112Z,51.90
2023-02-23T00:59:01.170Z,48.53
2023-02-23T01:01:28.506Z,49.60
2023-02-23T01:03:55.447Z,49.37
2023-02-23T01:06:22.355Z,47.40
2023-02-23T01:08:52.783Z,51.37
2023-02-23T01:11:22.194Z,49.40
2023-02-23T01:13:52.563Z,48.67
2023-02-23T01:16:22.117Z,50.97
2023-02-23T01:18:49.504Z,52.73
2023-02-23T01:21:17.390Z,52.53
2023-02-23T01:23:44.725Z,51.40
2023-02-23T01:26:23.435Z,51.40
2023-02-23T01:29:01.487Z,53.50
2023-02-23T01:31:29.827Z,54.40
2023-02-23T01:33:58.834Z,53.40
2023-02-23T01:36:26.291Z,52.97
2023-02-23T01:38:56.446Z,52.93
2023-02-23T01:41:24.853Z,54.30
2023-02-23T01:44:08.971Z,52.60
2023-02-23T01:46:41.159Z,56.30
2023-02-23T01:49:15.341Z,56.40
2023-02-23T01:51:49.873Z,52.67
2023-02-23T01:54:21.328Z,55.47
2023-02-23T01:56:57.890Z,50.20
2023-02-23T01:59:34.095Z,53.83
2023-02-23T02:02:04.942Z,55.27
2023-02-23T02:04:45.314Z,53.07
2023-02-23T02:07:16.129Z,55.93
2023-02-23T02:10:21.969Z,57.70
2023-02-23T02:12:56.033Z,54.80
2023-02-23T02:15:28.180Z,53.60
2023-02-23T02:18:26.441Z,53.70
2023-02-23T02:21:17.993Z,53.20
2023-02-23T02:24:08.152Z,52.43
2023-02-23T02:27:13.453Z,52.77
2023-02-23T02:29:51.263Z,56.30
2023-02-23T02:32:39.242Z,53.60
2023-02-23T02:35:31.250Z,56.27
2023-02-23T02:38:21.670Z,55.50
2023-02-23T02:41:07.501Z,56.80
2023-02-23T02:43:50.919Z,56.83
2023-02-23T02:46:29.655Z,57.90
2023-02-23T02:49:26.582Z,59.80
2023-02-23T02:51:58.264Z,56.70
2023-02-23T02:54:36.362Z,54.77
2023-02-23T02:57:05.518Z,58.37
2023-02-23T03:00:05.004Z,56.00
2023-02-23T03:02:52.267Z,57.23
2023-02-23T03:05:40.446Z,57.13
2023-02-23T03:08:57.777Z,57.00
2023-02-23T03:11:52.064Z,58.80
2023-02-23T03:14:54.946Z,57.10
2023-02-23T03:17:56.274Z,56.60
2023-02-23T03:21:00.516Z,58.20
2023-02-23T03:24:07.889Z,59.57
2023-02-23T03:27:10.941Z,60.30
2023-02-23T03:30:11.323Z,58.00
2023-02-23T03:33:06.801Z,60.97
2023-02-23T03:36:09.871Z,57.30
2023-02-23T03:39:31.766Z,58.90
2023-02-23T03:42:22.813Z,58.10
2023-02-23T03:45:12.677Z,59.53
2023-02-23T03:48:00.345Z,60.13
2023-02-23T03:50:51.930Z,59.33
2023-02-23T03:53:45.515Z,59.77
2023-02-23T03:56:34.576Z,58.20
2023-02-23T03:59:22.471Z,58.40
2023-02-23T04:02:10.954Z,56.43
2023-02-23T04:04:57.931Z,57.10
2023-02-23T04:07:43.927Z,59.47
2023-02-23T04:10:30.165Z,59.97
2023-02-23T04:13:16.771Z,58.33
2023-02-23T04:15:55.503Z,61.27
2023-02-23T04:18:26.156Z,57.10
2023-02-23T04:20:53.532Z,55.77
2023-02-23T04:23:22.702Z,58.70
2023-02-23T04:25:50.665Z,58.10
2023-02-23T04:28:17.855Z,59.27
2023-02-23T04:30:44.960Z,61.10
2023-02-23T04:33:11.652Z,59.77
2023-02-23T04:35:38.343Z,59.77
2023-02-23T04:38:05.298Z,64.80
2023-02-23T04:40:32.777Z,63.20
2023-02-23T04:42:59.524Z,62.07
2023-02-23T04:45:26.830Z,62.77
2023-02-23T04:47:53.614Z,62.47
2023-02-23T04:50:20.801Z,64.80
2023-02-23T04:52:47.738Z,62.17
2023-02-23T04:55:20.044Z,63.47
2023-02-23T04:57:46.939Z,64.40
2023-02-23T05:00:14.237Z,66.80
2023-02-23T05:02:41.051Z,64.13
2023-02-23T05:05:09.198Z,69.70
2023-02-23T05:07:36.678Z,66.80
2023-02-23T05:10:04.870Z,61.93
2023-02-23T05:12:32.193Z,63.03
2023-02-23T05:14:59.200Z,64.40
2023-02-23T05:17:26.363Z,65.60
2023-02-23T05:19:53.523Z,65.53
2023-02-23T05:22:20.504Z,66.30
2023-02-23T05:24:47.681Z,68.53
2023-02-23T05:27:15.424Z,60.07
2023-02-23T05:29:42.557Z,61.83
2023-02-23T05:32:09.375Z,63.23
2023-02-23T05:34:37.340Z,64.17
2023-02-23T05:37:04.003Z,61.80
2023-02-23T05:39:31.417Z,56.90
2023-02-23T05:41:58.141Z,57.07
2023-02-23T05:44:25.160Z,59.47
2023-02-23T05:46:51.956Z,56.03
2023-02-23T05:49:18.649Z,51.13
2023-02-23T05:51:45.288Z,51.87
2023-02-23T05:54:13.946Z,51.40
2023-02-23T05:56:42.254Z,52.40
2023-02-23T05:59:08.992Z,51.83
2023-02-23T06:01:35.774Z,51.77
2023-02-23T06:04:03.605Z,52.37
2023-02-23T06:06:31.845Z,53.07
2023-02-23T06:08:58.531Z,49.50
2023-02-23T06:11:25.252Z,50.50
2023-02-23T06:13:52.288Z,49.60
2023-02-23T06:16:19.220Z,49.93
2023-02-23T06:18:46.152Z,50.20
2023-02-23T06:21:13.103Z,47.90
2023-02-23T06:23:39.739Z,48.63
2023-02-23T06:26:07.654Z,47.70
2023-02-23T06:28:34.929Z,50.10
2023-02-23T06:31:01.692Z,47.43
2023-02-23T06:33:28.460Z,48.20
2023-02-23T06:35:56.008Z,49.23
2023-02-23T06:38:23.816Z,52.47
2023-02-23T06:40:50.476Z,57.10
2023-02-23T06:43:17.110Z,57.20
2023-02-23T06:45:43.823Z,49.87
2023-02-23T06:48:10.621Z,51.50
2023-02-23T06:50:37.326Z,55.90
2023-02-23T06:53:04.912Z,56.47
2023-02-23T06:55:32.540Z,58.03
2023-02-23T06:57:59.249Z,62.70
2023-02-23T07:00:26.171Z,61.53
2023-02-23T07:02:52.923Z,64.97
2023-02-23T07:05:19.788Z,66.03
2023-02-23T07:07:46.526Z,66.60
2023-02-23T07:10:13.288Z,63.50
2023-02-23T07:12:40.125Z,61.37
2023-02-23T07:15:07.423Z,57.33
2023-02-23T07:17:34.223Z,60.90
2023-02-23T07:20:00.908Z,59.73
2023-02-23T07:22:30.175Z,54.40
2023-02-23T07:24:57.624Z,58.17
2023-02-23T07:27:24.727Z,60.77
2023-02-23T07:29:51.400Z,60.43
2023-02-23T07:32:18.327Z,64.77
2023-02-23T07:34:45.876Z,65.37
2023-02-23T07:37:12.584Z,65.13
2023-02-23T07:39:39.475Z,61.63
2023-02-23T07:42:06.191Z,61.50
2023-02-23T07:44:32.896Z,61.00
2023-02-23T07:46:59.508Z,63.17
2023-02-23T07:49:26.271Z,61.33
2023-02-23T07:51:52.894Z,64.30
2023-02-23T07:54:19.631Z,68.40
2023-02-23T07:56:46.395Z,61.63
2023-02-23T07:59:14.081Z,62.67
2023-02-23T08:01:40.749Z,67.60
2023-02-23T08:04:08.006Z,68.07
2023-02-23T08:06:34.655Z,66.00
2023-02-23T08:09:02.440Z,63.50
2023-02-23T08:11:29.215Z,69.10
2023-02-23T08:14:00.259Z,66.97
2023-02-23T08:16:31.608Z,66.83
2023-02-23T08:18:59.428Z,67.60
2023-02-23T08:21:29.149Z,64.03
2023-02-23T08:23:57.082Z,68.50
2023-02-23T08:26:25.235Z,70.50
2023-02-23T08:28:53.175Z,64.13
2023-02-23T08:31:24.348Z,68.80
2023-02-23T08:33:51.914Z,68.20
2023-02-23T08:36:18.851Z,68.70
2023-02-23T08:38:45.507Z,70.00
2023-02-23T08:41:12.326Z,70.60
2023-02-23T08:43:39.178Z,64.70
2023-02-23T08:46:07.001Z,61.50
2023-02-23T08:48:34.788Z,63.93
2023-02-23T08:51:01.870Z,54.90
2023-02-23T08:53:29.648Z,54.90
2023-02-23T08:56:00.690Z,54.10
2023-02-23T08:58:28.747Z,54.90
2023-02-23T09:00:55.557Z,54.27
2023-02-23T09:03:22.793Z,52.07
2023-02-23T09:05:49.789Z,48.77
2023-02-23T09:08:16.469Z,51.80
2023-02-23T09:10:46.118Z,51.40
2023-02-23T09:13:13.037Z,52.03
2023-02-23T09:15:41.064Z,51.80
2023-02-23T09:18:11.370Z,53.70
2023-02-23T09:20:41.814Z,51.33
2023-02-23T09:23:08.541Z,51.87
2023-02-23T09:25:45.615Z,50.17
2023-02-23T09:28:15.031Z,50.77
2023-02-23T09:30:43.017Z,49.80
2023-02-23T09:33:10.343Z,51.97
2023-02-23T09:35:37.511Z,51.83
2023-02-23T09:38:06.301Z,52.30
2023-02-23T09:40:49.617Z,51.13
2023-02-23T09:43:22.531Z,51.80
2023-02-23T09:46:03.523Z,49.80
2023-02-23T09:48:30.401Z,50.30
2023-02-23T09:50:59.708Z,52.40
2023-02-23T09:53:34.336Z,52.07
2023-02-23T09:56:07.117Z,50.90
2023-02-23T09:58:34.544Z,50.83
2023-02-23T10:01:39.385Z,49.30
2023-02-23T10:04:19.800Z,51.20
2023-02-23T10:06:54.687Z,53.93
2023-02-23T10:09:42.159Z,52.57
2023-02-23T10:12:33.893Z,50.00
2023-02-23T10:15:12.972Z,48.97
2023-02-23T10:18:05.174Z,50.57
2023-02-23T10:20:53.236Z,51.00
2023-02-23T10:23:31.590Z,58.60
2023-02-23T10:26:01.019Z,54.93
2023-02-23T10:28:33.073Z,56.03
2023-02-23T10:31:00.613Z,59.30
2023-02-23T10:33:38.124Z,61.40
2023-02-23T10:36:19.561Z,56.90
2023-02-23T10:38:46.886Z,57.50
2023-02-23T10:41:15.076Z,57.80
2023-02-23T10:43:41.955Z,57.30
2023-02-23T10:46:18.007Z,59.50
2023-02-23T10:48:45.950Z,59.60
2023-02-23T10:51:25.593Z,52.60
2023-02-23T10:53:53.635Z,54.53
2023-02-23T10:56:22.098Z,53.63
2023-02-23T10:58:55.017Z,50.90
2023-02-23T11:01:33.477Z,54.03
2023-02-23T11:04:26.569Z,51.90
2023-02-23T11:07:16.542Z,50.20
2023-02-23T11:09:47.534Z,37.50
2023-02-23T11:12:39.521Z,48.60
2023-02-23T11:15:32.117Z,47.93
2023-02-23T11:18:06.690Z,47.20
2023-02-23T11:20:40.279Z,48.20
2023-02-23T11:23:21.486Z,45.90
2023-02-23T11:25:50.812Z,45.17
2023-02-23T11:28:22.303Z,42.33
2023-02-23T11:30:49.913Z,44.97
2023-02-23T11:33:19.687Z,45.50
2023-02-23T11:35:46.626Z,46.17
2023-02-23T11:38:24.116Z,47.13
2023-02-23T11:41:07.155Z,48.80
2023-02-23T11:43:33.807Z,47.53
2023-02-23T11:46:02.590Z,49.77
2023-02-23T11:48:48.383Z,48.90
2023-02-23T11:51:25.257Z,46.30
2023-02-23T11:53:52.542Z,47.80
2023-02-23T11:56:22.507Z,43.50
2023-02-23T11:58:53.656Z,46.97
2023-02-23T12:01:44.652Z,40.73
2023-02-23T12:04:29.084Z,36.70
2023-02-23T12:07:24.475Z,39.43
2023-02-23T12:10:02.388Z,39.30
2023-02-23T12:12:31.859Z,41.43
2023-02-23T12:15:11.735Z,45.67
2023-02-23T12:17:43.847Z,46.60
2023-02-23T12:20:14.108Z,43.57
2023-02-23T12:22:49.247Z,43.20
2023-02-23T12:25:40.678Z,41.40
2023-02-23T12:28:27.168Z,42.93
2023-02-23T12:30:56.681Z,40.93
2023-02-23T12:33:38.669Z,40.60
2023-02-23T12:36:35.016Z,40.37
2023-02-23T12:39:10.485Z,42.40
2023-02-23T12:41:43.255Z,41.10
2023-02-23T12:44:34.226Z,41.67
2023-02-23T12:47:24.700Z,38.93
2023-02-23T12:50:12.581Z,40.20
2023-02-23T12:52:57.505Z,41.43
2023-02-23T12:55:40.069Z,36.23
2023-02-23T12:58:47.778Z,36.90
2023-02-23T13:01:24.579Z,35.40
2023-02-23T13:04:19.909Z,38.13
2023-02-23T13:07:14.711Z,35.03
2023-02-23T13:09:47.564Z,31.57
2023-02-23T13:12:40.726Z,31.17
2023-02-23T13:15:24.597Z,34.70
2023-02-23T13:18:09.073Z,35.50
2023-02-23T13:20:42.326Z,35.97
2023-02-23T13:23:26.379Z,36.30
2023-02-23T13:26:16.613Z,35.10
2023-02-23T13:28:59.557Z,36.33
2023-02-23T13:31:28.114Z,43.83
2023-02-23T13:33:57.651Z,33.10
2023-02-23T13:36:28.218Z,32.70
2023-02-23T13:39:25.072Z,34.10
2023-02-23T13:42:30.805Z,35.13
2023-02-23T13:45:38.757Z,32.50
2023-02-23T13:48:32.433Z,32.57
2023-02-23T13:51:23.505Z,34.87
2023-02-23T13:54:16.096Z,35.80
2023-02-23T13:56:48.180Z,33.73
2023-02-23T13:59:24.451Z,35.00
2023-02-23T14:01:53.406Z,34.83
2023-02-23T14:04:24.480Z,36.30
2023-02-23T14:07:03.922Z,36.80
2023-02-23T14:09:35.299Z,36.37
2023-02-23T14:12:07.571Z,35.77
2023-02-23T14:14:34.215Z,38.90
2023-02-23T14:17:15.900Z,38.80
2023-02-23T14:20:01.747Z,41.37
2023-02-23T14:22:28.462Z,38.17
2023-02-23T14:25:32.542Z,38.23
2023-02-23T14:28:23.503Z,39.80
2023-02-23T14:31:12.103Z,41.93
2023-02-23T14:33:41.637Z,41.90
2023-02-23T14:36:26.635Z,36.07
2023-02-23T14:38:56.096Z,37.73
2023-02-23T14:41:35.860Z,32.10
2023-02-23T14:44:34.428Z,31.87
2023-02-23T14:47:12.319Z,34.63
2023-02-23T14:49:45.216Z,32.80
2023-02-23T14:52:41.333Z,31.07
2023-02-23T14:55:11.026Z,32.17
2023-02-23T14:57:39.916Z,29.90
2023-02-23T15:00:16.117Z,30.80
2023-02-23T15:03:08.866Z,29.03
2023-02-23T15:06:01.468Z,30.23
2023-02-23T15:08:30.771Z,30.67
2023-02-23T15:11:03.942Z,30.27
2023-02-23T15:13:40.643Z,32.60
2023-02-23T15:16:18.728Z,28.67
2023-02-23T15:19:29.048Z,31.53
2023-02-23T15:21:58.062Z,32.40
2023-02-23T15:24:33.234Z,32.47
2023-02-23T15:27:00.177Z,32.90
2023-02-23T15:29:32.968Z,30.83
2023-02-23T15:32:19.799Z,33.70
2023-02-23T15:34:48.154Z,32.03
2023-02-23T15:37:23.725Z,30.80
2023-02-23T15:39:57.003Z,32.60
2023-02-23T15:42:34.777Z,30.57
2023-02-23T15:45:04.210Z,28.60
2023-02-23T15:47:37.101Z,28.10
2023-02-23T15:50:12.575Z,30.70
2023-02-23T15:52:49.343Z,25.50
2023-02-23T15:55:24.261Z,27.57
2023-02-23T15:58:00.334Z,26.60
2023-02-23T16:00:38.267Z,28.43
2023-02-23T16:03:07.001Z,27.37
2023-02-23T16:05:47.077Z,27.73
2023-02-23T16:08:23.940Z,26.90
2023-02-23T16:10:55.033Z,25.97
2023-02-23T16:13:22.531Z,26.40
2023-02-23T16:15:50.211Z,26.10
2023-02-23T16:18:20.008Z,25.10
2023-02-23T16:20:58.662Z,27.03
2023-02-23T16:23:37.110Z,26.70
2023-02-23T16:26:15.777Z,28.47
2023-02-23T16:28:45.232Z,26.27
2023-02-23T16:31:14.047Z,27.00
2023-02-23T16:33:50.895Z,29.13
2023-02-23T16:36:23.606Z,27.10
2023-02-23T16:39:00.266Z,28.40
2023-02-23T16:41:31.828Z,29.17
2023-02-23T16:44:05.050Z,31.20
2023-02-23T16:46:56.429Z,31.00
2023-02-23T16:49:23.532Z,33.47
2023-02-23T16:51:51.623Z,33.30
2023-02-23T16:54:18.546Z,32.23
2023-02-23T16:56:46.990Z,31.53
2023-02-23T16:59:17.216Z,31.43
2023-02-23T17:01:46.473Z,33.20
2023-02-23T17:04:17.216Z,36.73
2023-02-23T17:06:52.667Z,33.30
2023-02-23T17:09:19.322Z,34.37
2023-02-23T17:11:46.947Z,39.90
2023-02-23T17:14:24.886Z,39.07
2023-02-23T17:16:52.067Z,42.43
2023-02-23T17:19:18.873Z,36.53
2023-02-23T17:21:46.686Z,36.07
2023-02-23T17:24:13.350Z,33.90
2023-02-23T17:26:41.954Z,32.13
2023-02-23T17:29:08.644Z,32.90
2023-02-23T17:31:37.805Z,32.20
2023-02-23T17:34:04.793Z,31.27
2023-02-23T17:36:31.440Z,32.57
2023-02-23T17:38:58.720Z,30.63
2023-02-23T17:41:27.022Z,32.73
2023-02-23T17:43:53.841Z,30.47
2023-02-23T17:46:20.840Z,31.47
2023-02-23T17:48:47.588Z,30.60
2023-02-23T17:51:16.590Z,28.73
2023-02-23T17:53:44.756Z,28.00
2023-02-23T17:56:11.556Z,31.50
2023-02-23T17:58:39.472Z,29.67
2023-02-23T18:01:07.314Z,30.90
2023-02-23T18:03:36.454Z,29.37
2023-02-23T18:06:09.157Z,33.27
2023-02-23T18:08:36.947Z,31.53
2023-02-23T18:11:03.752Z,31.73
2023-02-23T18:13:33.172Z,33.20
2023-02-23T18:16:02.976Z,35.07
2023-02-23T18:18:30.125Z,32.63
2023-02-23T18:20:59.278Z,32.00
2023-02-23T18:23:35.760Z,33.47
2023-02-23T18:26:11.420Z,33.47
2023-02-23T18:28:39.886Z,31.67
2023-02-23T18:31:07.059Z,30.80
2023-02-23T18:33:35.868Z,30.70
2023-02-23T18:36:03.825Z,32.77
2023-02-23T18:38:30.575Z,31.57
2023-02-23T18:40:58.326Z,30.30
2023-02-23T18:43:25.004Z,30.00
2023-02-23T18:45:51.653Z,30.47
2023-02-23T18:48:18.365Z,32.13
2023-02-23T18:50:45.003Z,30.37
2023-02-23T18:53:11.659Z,32.23
2023-02-23T18:55:38.544Z,34.60
2023-02-23T18:58:05.924Z,31.67
2023-02-23T19:00:39.894Z,31.03
2023-02-23T19:03:07.331Z,32.57
2023-02-23T19:05:36.183Z,31.67
2023-02-23T19:08:13.346Z,34.47
2023-02-23T19:10:40.694Z,32.80
2023-02-23T19:13:08.930Z,32.87
2023-02-23T19:15:35.983Z,33.10
2023-02-23T19:18:03.948Z,31.17
2023-02-23T19:20:32.721Z,32.77
2023-02-23T19:22:59.485Z,31.00
2023-02-23T19:25:26.139Z,31.37
2023-02-23T19:27:53.051Z,31.40
2023-02-23T19:30:19.736Z,31.70
2023-02-23T19:32:46.748Z,30.33
2023-02-23T19:35:14.828Z,30.33
2023-02-23T19:37:49.164Z,33.47
2023-02-23T19:40:20.759Z,30.60
2023-02-23T19:42:49.541Z,32.03
2023-02-23T19:45:17.717Z,32.50
2023-02-23T19:47:44.540Z,27.23
2023-02-23T19:50:18.720Z,28.30
2023-02-23T19:52:46.824Z,29.03
2023-02-23T19:55:13.863Z,28.63
2023-02-23T19:57:41.376Z,28.10
2023-02-23T20:00:11.973Z,26.93
2023-02-23T20:02:42.733Z,25.93
2023-02-23T20:05:15.459Z,27.10
2023-02-23T20:07:42.801Z,27.07
2023-02-23T20:10:15.955Z,24.47
2023-02-23T20:12:43.188Z,24.43
2023-02-23T20:15:10.312Z,26.27
2023-02-23T20:17:37.093Z,24.57
2023-02-23T20:20:06.147Z,25.83
2023-02-23T20:22:36.274Z,27.83
2023-02-23T20:25:06.089Z,27.10
2023-02-23T20:27:35.032Z,23.77
2023-02-23T20:30:02.324Z,25.63
2023-02-23T20:32:29.118Z,23.23
2023-02-23T20:35:00.555Z,21.23
2023-02-23T20:37:27.354Z,25.13
2023-02-23T20:39:54.043Z,22.90
2023-02-23T20:42:20.689Z,28.57
2023-02-23T20:44:47.338Z,26.87
2023-02-23T20:47:13.992Z,26.50
2023-02-23T20:49:41.192Z,25.03
2023-02-23T20:52:07.905Z,24.50
2023-02-23T20:54:34.548Z,23.07
2023-02-23T20:57:07.678Z,25.73
2023-02-23T20:59:38.977Z,27.57
2023-02-23T21:02:08.057Z,29.00
2023-02-23T21:04:35.810Z,24.50
2023-02-23T21:07:05.265Z,26.83
2023-02-23T21:09:32.750Z,24.00
2023-02-23T21:11:59.438Z,29.10
2023-02-23T21:14:26.082Z,27.20
2023-02-23T21:16:53.110Z,24.90
2023-02-23T21:19:20.174Z,25.80
2023-02-23T21:21:50.371Z,23.37
2023-02-23T21:24:18.920Z,22.67
2023-02-23T21:26:45.652Z,25.20
2023-02-23T21:29:14.807Z,25.50
2023-02-23T21:31:43.428Z,24.83
2023-02-23T21:34:10.980Z,25.17
2023-02-23T21:36:38.088Z,25.37
2023-02-23T21:39:06.301Z,25.60
2023-02-23T21:41:34.052Z,31.70
2023-02-23T21:44:03.575Z,28.13
2023-02-23T21:46:30.281Z,27.80
2023-02-23T21:48:57.000Z,25.60
2023-02-23T21:51:24.098Z,25.70
2023-02-23T21:53:50.916Z,25.07
2023-02-23T21:56:22.366Z,23.60
2023-02-23T21:58:51.727Z,27.30
2023-02-23T22:01:24.578Z,26.87
2023-02-23T22:03:51.700Z,27.03
2023-02-23T22:06:21.353Z,25.87
2023-02-23T22:08:51.192Z,28.97
2023-02-23T22:11:21.207Z,26.30
2023-02-23T22:13:50.077Z,27.20
2023-02-23T22:16:19.185Z,26.73
2023-02-23T22:18:46.520Z,27.47
2023-02-23T22:21:13.800Z,27.47
2023-02-23T22:23:43.653Z,27.67
2023-02-23T22:26:11.112Z,29.10
2023-02-23T22:28:37.836Z,26.43
2023-02-23T22:31:09.802Z,29.40
2023-02-23T22:33:38.438Z,30.53
2023-02-23T22:36:08.043Z,29.37
2023-02-23T22:38:35.241Z,29.00
2023-02-23T22:41:02.048Z,28.90
2023-02-23T22:43:30.532Z,30.70
2023-02-23T22:45:58.563Z,28.17
2023-02-23T22:48:25.272Z,28.57
2023-02-23T22:50:51.961Z,30.03
2023-02-23T22:53:18.657Z,33.00
2023-02-23T22:55:49.857Z,33.47
2023-02-23T22:58:16.663Z,33.33
2023-02-23T23:01:02.260Z,30.43
2023-02-23T23:03:32.280Z,30.10
2023-02-23T23:06:02.529Z,30.10
2023-02-23T23:08:40.832Z,29.77
2023-02-23T23:11:11.107Z,32.33
2023-02-23T23:13:44.447Z,31.47
2023-02-23T23:16:29.149Z,28.83
2023-02-23T23:19:11.838Z,32.27
2023-02-23T23:21:40.822Z,30.90
2023-02-23T23:24:09.396Z,32.57
2023-02-23T23:26:39.575Z,32.10
2023-02-23T23:29:10.006Z,31.20
2023-02-23T23:31:39.990Z,31.97
2023-02-23T23:34:09.781Z,35.60
2023-02-23T23:36:53.101Z,32.50
2023-02-23T23:39:23.285Z,32.23
2023-02-23T23:41:50.575Z,35.63
2023-02-23T23:44:19.810Z,33.23
2023-02-23T23:46:47.673Z,34.90
2023-02-23T23:49:20.330Z,35.90
2023-02-23T23:51:50.377Z,36.37
2023-02-23T23:54:22.805Z,35.07
2023-02-23T23:56:50.705Z,34.80
2023-02-23T23:59:20.213Z,35.13
